Time;durP1;ratioP1;P1;durP2;ratioP2;P2;SDS_P1;SDS_P2;PMS_P1;PMS_P2;Temp;Humidity;BMP_temperature;BMP_pressure;BME280_temperature;BME280_humidity;BME280_pressure;Samples;Min_cycle;Max_cycle;Signal;HPM_P1;HPM_P2
2021/03/11 00:01:35;;;;;;;83.60;42.50;;;;;;;;;;5053031;28;20029;-58
2021/03/11 00:04:00;;;;;;;79.18;39.25;;;;;;;;;;5035307;28;20490;-58
2021/03/11 00:06:26;;;;;;;77.57;38.95;;;;;;;;;;5053200;28;20032;-59
2021/03/11 00:08:51;;;;;;;65.03;34.08;;;;;;;;;;5053361;28;20024;-58
2021/03/11 00:11:18;;;;;;;64.90;34.90;;;;;;;;;;5053239;28;20021;-58
2021/03/11 00:13:43;;;;;;;70.60;38.40;;;;;;;;;;5053147;28;20020;-58
2021/03/11 00:16:09;;;;;;;79.93;38.53;;;;;;;;;;5053011;28;20025;-58
2021/03/11 00:18:34;;;;;;;81.82;38.90;;;;;;;;;;5053129;28;20539;-58
2021/03/11 00:21:00;;;;;;;86.10;40.67;;;;;;;;;;5052846;28;20052;-59
2021/03/11 00:23:25;;;;;;;85.05;40.05;;;;;;;;;;5054405;28;20013;-58
2021/03/11 00:25:50;;;;;;;77.32;37.08;;;;;;;;;;5056850;28;20082;-59
2021/03/11 00:28:16;;;;;;;71.82;35.25;;;;;;;;;;5056900;28;20375;-59
2021/03/11 00:30:41;;;;;;;91.60;45.08;;;;;;;;;;5039090;28;20025;-59
2021/03/11 00:33:07;;;;;;;106.00;50.78;;;;;;;;;;5056823;28;20469;-58
2021/03/11 00:35:33;;;;;;;191.00;87.50;;;;;;;;;;5056848;28;20025;-58
2021/03/11 00:37:59;;;;;;;209.25;98.30;;;;;;;;;;5057049;28;20025;-58
2021/03/11 00:40:24;;;;;;;205.05;89.68;;;;;;;;;;5056998;28;20036;-58
2021/03/11 00:42:52;;;;;;;131.82;59.28;;;;;;;;;;5038720;28;20447;-58
2021/03/11 00:45:18;;;;;;;141.70;61.47;;;;;;;;;;5038814;28;20080;-58
2021/03/11 00:47:45;;;;;;;100.10;46.47;;;;;;;;;;5038737;28;20023;-58
2021/03/11 00:50:15;;;;;;;80.05;37.20;;;;;;;;;;5056816;28;20104;-59
2021/03/11 00:52:40;;;;;;;66.00;33.72;;;;;;;;;;5056225;28;20080;-58
2021/03/11 00:55:07;;;;;;;71.53;34.47;;;;;;;;;;5038324;28;20059;-58
2021/03/11 00:57:33;;;;;;;75.57;36.58;;;;;;;;;;5038500;28;20036;-58
2021/03/11 00:59:59;;;;;;;73.55;35.55;;;;;;;;;;5038515;28;20024;-59
2021/03/11 01:02:24;;;;;;;78.60;38.83;;;;;;;;;;5038521;28;20013;-58
2021/03/11 01:04:50;;;;;;;71.38;35.92;;;;;;;;;;5038164;28;20469;-58
2021/03/11 01:07:17;;;;;;;74.53;36.72;;;;;;;;;;5056439;28;20478;-59
2021/03/11 01:09:43;;;;;;;71.15;36.05;;;;;;;;;;5056165;28;20467;-58
2021/03/11 01:12:11;;;;;;;46.70;23.98;;;;;;;;;;5056361;28;20017;-58
2021/03/11 01:14:37;;;;;;;50.33;25.10;;;;;;;;;;5056335;28;20090;-58
2021/03/11 01:17:02;;;;;;;48.92;25.40;;;;;;;;;;5056018;28;20060;-59
2021/03/11 01:19:28;;;;;;;43.65;23.60;;;;;;;;;;5056317;28;20037;-59
2021/03/11 01:21:53;;;;;;;44.25;22.95;;;;;;;;;;5038023;28;20020;-59
2021/03/11 01:24:19;;;;;;;45.97;23.63;;;;;;;;;;5055764;28;20021;-58
2021/03/11 01:26:44;;;;;;;45.53;22.55;;;;;;;;;;5055746;28;20017;-58
2021/03/11 01:29:09;;;;;;;50.20;25.73;;;;;;;;;;5055956;28;20029;-58
2021/03/11 01:31:36;;;;;;;49.42;25.27;;;;;;;;;;5055718;28;20379;-58
2021/03/11 01:34:01;;;;;;;49.60;26.55;;;;;;;;;;5055466;28;20450;-58
2021/03/11 01:36:27;;;;;;;51.40;26.23;;;;;;;;;;5054655;28;20048;-58
2021/03/11 01:38:52;;;;;;;48.85;24.77;;;;;;;;;;5055375;28;20446;-58
2021/03/11 01:41:21;;;;;;;50.35;26.95;;;;;;;;;;5037598;28;20030;-58
2021/03/11 01:43:47;;;;;;;48.88;26.05;;;;;;;;;;5055538;28;20043;-58
2021/03/11 01:46:12;;;;;;;65.22;29.70;;;;;;;;;;5037462;28;20115;-58
2021/03/11 01:48:38;;;;;;;48.20;25.08;;;;;;;;;;5037545;28;20032;-58
2021/03/11 01:51:03;;;;;;;53.70;26.58;;;;;;;;;;5055097;28;20047;-58
2021/03/11 01:53:29;;;;;;;47.38;23.77;;;;;;;;;;5055429;28;20048;-58
2021/03/11 01:55:55;;;;;;;40.00;21.77;;;;;;;;;;5055131;28;20024;-58
2021/03/11 01:58:20;;;;;;;39.08;20.52;;;;;;;;;;5037394;28;20043;-58
2021/03/11 02:00:46;;;;;;;36.33;19.58;;;;;;;;;;5055701;28;20419;-58
2021/03/11 02:03:12;;;;;;;39.40;21.92;;;;;;;;;;5055302;28;20086;-58
2021/03/11 02:05:38;;;;;;;44.88;22.75;;;;;;;;;;5054972;28;20025;-58
2021/03/11 02:08:03;;;;;;;40.40;21.15;;;;;;;;;;5055212;28;20395;-58
2021/03/11 02:10:29;;;;;;;39.58;21.70;;;;;;;;;;5037616;28;20025;-59
2021/03/11 02:13:04;;;;;;;41.28;21.67;;;;;;;;;;5055330;28;20056;-59
2021/03/11 02:15:34;;;;;;;40.03;21.27;;;;;;;;;;5054979;28;20391;-59
2021/03/11 02:18:27;;;;;;;34.93;19.73;;;;;;;;;;5037623;28;20029;-59
2021/03/11 02:21:10;;;;;;;36.40;19.52;;;;;;;;;;5051142;28;20275;-59
2021/03/11 02:23:56;;;;;;;36.13;18.70;;;;;;;;;;5055158;28;20029;-59
2021/03/11 02:26:32;;;;;;;37.55;19.25;;;;;;;;;;5040630;28;20450;-59
2021/03/11 02:28:57;;;;;;;34.65;18.52;;;;;;;;;;5055003;28;20120;-59
2021/03/11 02:31:23;;;;;;;33.80;19.02;;;;;;;;;;5054546;28;20104;-59
2021/03/11 02:33:50;;;;;;;34.55;18.30;;;;;;;;;;5036858;28;20037;-59
2021/03/11 02:36:16;;;;;;;41.05;19.58;;;;;;;;;;5054442;28;20086;-59
2021/03/11 02:38:41;;;;;;;49.38;26.55;;;;;;;;;;5054900;28;20475;-58
2021/03/11 02:41:07;;;;;;;52.55;28.05;;;;;;;;;;5054413;28;20040;-59
2021/03/11 02:43:33;;;;;;;58.83;28.75;;;;;;;;;;5054605;28;20078;-59
2021/03/11 02:45:59;;;;;;;40.83;21.10;;;;;;;;;;5054368;28;20052;-59
2021/03/11 02:48:26;;;;;;;39.70;20.48;;;;;;;;;;5054202;28;20072;-59
2021/03/11 02:50:51;;;;;;;33.85;19.25;;;;;;;;;;5035967;28;20080;-59
2021/03/11 02:53:17;;;;;;;38.40;19.63;;;;;;;;;;5054047;28;20024;-59
2021/03/11 02:55:43;;;;;;;38.05;19.10;;;;;;;;;;5054494;28;20037;-58
2021/03/11 02:58:11;;;;;;;34.72;18.30;;;;;;;;;;5020078;28;20060;-58
2021/03/11 03:00:37;;;;;;;32.60;18.95;;;;;;;;;;5054309;28;20111;-58
2021/03/11 03:03:02;;;;;;;32.90;18.38;;;;;;;;;;5053988;28;20033;-58
2021/03/11 03:05:28;;;;;;;33.03;19.58;;;;;;;;;;5054303;28;20036;-58
2021/03/11 03:07:54;;;;;;;34.13;19.10;;;;;;;;;;5054115;28;20036;-58
2021/03/11 03:10:28;;;;;;;32.28;18.92;;;;;;;;;;5053906;28;20016;-58
2021/03/11 03:12:55;;;;;;;34.63;17.95;;;;;;;;;;5054088;28;20087;-59
2021/03/11 03:15:23;;;;;;;30.42;17.50;;;;;;;;;;5036388;28;20052;-58
2021/03/11 03:17:49;;;;;;;28.75;17.00;;;;;;;;;;5054003;28;20044;-58
2021/03/11 03:20:17;;;;;;;33.55;17.65;;;;;;;;;;5054037;28;20442;-58
2021/03/11 03:22:43;;;;;;;34.70;19.25;;;;;;;;;;5053838;28;20029;-58
2021/03/11 03:25:10;;;;;;;35.05;19.80;;;;;;;;;;5054031;28;20029;-58
2021/03/11 03:27:36;;;;;;;39.05;21.40;;;;;;;;;;5053899;28;20116;-58
2021/03/11 03:30:09;;;;;;;35.67;20.25;;;;;;;;;;5035598;28;20112;-58
2021/03/11 03:32:35;;;;;;;30.30;18.70;;;;;;;;;;5053981;28;20474;-58
2021/03/11 03:35:00;;;;;;;33.35;18.38;;;;;;;;;;5053595;28;20033;-58
2021/03/11 03:37:26;;;;;;;31.70;19.33;;;;;;;;;;5053438;28;20025;-58
2021/03/11 03:39:51;;;;;;;31.55;20.13;;;;;;;;;;5053440;28;20017;-58
2021/03/11 03:42:17;;;;;;;27.27;16.02;;;;;;;;;;5053345;28;20506;-58
2021/03/11 03:44:43;;;;;;;32.70;19.30;;;;;;;;;;5053334;28;20478;-58
2021/03/11 03:47:09;;;;;;;26.55;15.65;;;;;;;;;;5053345;28;20614;-59
2021/03/11 03:49:35;;;;;;;28.88;18.63;;;;;;;;;;5053611;28;20020;-58
2021/03/11 03:52:01;;;;;;;31.05;18.65;;;;;;;;;;5052937;28;20074;-58
2021/03/11 03:54:29;;;;;;;29.70;18.17;;;;;;;;;;5053588;28;20506;-58
2021/03/11 03:56:56;;;;;;;31.15;18.70;;;;;;;;;;5053127;28;20035;-58
2021/03/11 03:59:23;;;;;;;29.85;19.10;;;;;;;;;;5034940;28;20419;-58
2021/03/11 04:01:51;;;;;;;27.85;18.58;;;;;;;;;;5053234;28;20467;-58
2021/03/11 04:04:18;;;;;;;27.15;14.68;;;;;;;;;;5035641;28;20116;-58
2021/03/11 04:06:44;;;;;;;22.52;13.02;;;;;;;;;;5053462;28;20036;-58
2021/03/11 04:09:11;;;;;;;23.50;13.88;;;;;;;;;;5053174;28;20017;-58
2021/03/11 04:11:37;;;;;;;25.85;13.38;;;;;;;;;;5053119;28;20032;-58
2021/03/11 04:14:03;;;;;;;21.40;12.23;;;;;;;;;;5053303;28;20013;-58
2021/03/11 04:16:29;;;;;;;26.60;15.15;;;;;;;;;;5053278;28;20021;-58
2021/03/11 04:18:56;;;;;;;19.95;13.32;;;;;;;;;;5035535;28;20070;-59
2021/03/11 04:21:22;;;;;;;22.58;14.20;;;;;;;;;;5035527;28;20029;-58
2021/03/11 04:23:49;;;;;;;23.83;13.35;;;;;;;;;;5052951;28;20021;-58
2021/03/11 04:26:15;;;;;;;28.83;14.38;;;;;;;;;;5053305;28;20029;-58
2021/03/11 04:28:41;;;;;;;27.35;15.60;;;;;;;;;;5035155;28;20021;-58
2021/03/11 04:31:08;;;;;;;60.17;38.03;;;;;;;;;;5053122;28;20029;-58
2021/03/11 04:33:33;;;;;;;34.30;16.55;;;;;;;;;;5052955;28;20013;-58
2021/03/11 04:35:59;;;;;;;23.83;15.38;;;;;;;;;;5053135;28;20438;-57
2021/03/11 04:38:24;;;;;;;25.75;14.70;;;;;;;;;;5052974;28;20021;-58
2021/03/11 04:40:50;;;;;;;26.38;13.98;;;;;;;;;;5052945;28;20091;-59
2021/03/11 04:43:16;;;;;;;29.67;15.93;;;;;;;;;;5053089;28;20028;-58
2021/03/11 04:45:46;;;;;;;37.20;20.00;;;;;;;;;;5052619;28;20045;-58
2021/03/11 04:48:12;;;;;;;30.38;18.73;;;;;;;;;;5052803;28;20025;-58
2021/03/11 04:50:41;;;;;;;27.67;14.70;;;;;;;;;;5052966;28;20033;-58
2021/03/11 04:53:07;;;;;;;50.90;33.30;;;;;;;;;;5034782;28;20063;-58
2021/03/11 04:55:33;;;;;;;46.95;35.15;;;;;;;;;;5052817;28;20052;-58
2021/03/11 04:57:59;;;;;;;31.80;25.85;;;;;;;;;;5052795;28;20043;-58
2021/03/11 05:00:25;;;;;;;28.30;21.70;;;;;;;;;;5052947;28;20040;-58
2021/03/11 05:02:50;;;;;;;23.67;17.60;;;;;;;;;;5052771;28;20027;-59
2021/03/11 05:05:32;;;;;;;27.55;14.50;;;;;;;;;;5052419;28;20387;-58
2021/03/11 05:07:58;;;;;;;29.50;17.30;;;;;;;;;;5052847;28;20021;-58
2021/03/11 05:10:24;;;;;;;27.55;17.42;;;;;;;;;;5054358;28;20018;-59
2021/03/11 05:12:50;;;;;;;23.63;14.50;;;;;;;;;;5056134;28;20028;-58
2021/03/11 05:15:16;;;;;;;26.17;16.30;;;;;;;;;;5056299;28;20444;-58
2021/03/11 05:17:41;;;;;;;31.83;17.65;;;;;;;;;;5056334;28;20041;-58
2021/03/11 05:20:07;;;;;;;28.92;16.25;;;;;;;;;;5055913;28;20025;-58
2021/03/11 05:22:33;;;;;;;31.33;19.10;;;;;;;;;;5056212;28;20083;-58
2021/03/11 05:24:59;;;;;;;35.20;19.60;;;;;;;;;;5055880;28;20100;-59
2021/03/11 05:27:24;;;;;;;43.72;23.05;;;;;;;;;;5055777;28;20112;-59
2021/03/11 05:29:50;;;;;;;26.63;16.15;;;;;;;;;;5056143;28;20028;-58
2021/03/11 05:32:15;;;;;;;32.40;18.65;;;;;;;;;;5038034;28;20033;-58
2021/03/11 05:34:41;;;;;;;48.35;23.50;;;;;;;;;;5056071;28;20024;-59
2021/03/11 05:37:06;;;;;;;75.68;31.35;;;;;;;;;;5055785;28;20120;-59
2021/03/11 05:39:33;;;;;;;110.20;48.03;;;;;;;;;;5055851;28;20032;-59
2021/03/11 05:41:59;;;;;;;77.05;35.85;;;;;;;;;;5055805;28;20182;-59
2021/03/11 05:44:25;;;;;;;195.85;85.25;;;;;;;;;;5055583;28;20021;-59
2021/03/11 05:46:51;;;;;;;51.67;27.45;;;;;;;;;;5055768;28;20090;-59
2021/03/11 05:49:18;;;;;;;47.25;24.70;;;;;;;;;;5055982;28;20021;-58
2021/03/11 05:51:44;;;;;;;52.15;26.65;;;;;;;;;;5037297;28;20029;-59
2021/03/11 05:54:10;;;;;;;35.75;22.05;;;;;;;;;;5055568;28;20051;-58
2021/03/11 05:56:36;;;;;;;38.90;24.00;;;;;;;;;;5055678;28;20459;-58
2021/03/11 05:59:01;;;;;;;34.08;19.75;;;;;;;;;;5055674;28;20021;-59
2021/03/11 06:01:29;;;;;;;42.00;21.15;;;;;;;;;;5055599;28;20017;-58
2021/03/11 06:03:55;;;;;;;43.70;21.30;;;;;;;;;;5055688;28;20025;-58
2021/03/11 06:06:22;;;;;;;34.40;19.05;;;;;;;;;;5055426;28;20016;-58
2021/03/11 06:08:57;;;;;;;31.98;18.48;;;;;;;;;;5037923;28;20025;-58
2021/03/11 06:11:24;;;;;;;35.47;18.45;;;;;;;;;;5055609;28;20115;-58
2021/03/11 06:13:50;;;;;;;34.70;18.77;;;;;;;;;;5055544;28;20411;-59
2021/03/11 06:16:19;;;;;;;54.63;25.77;;;;;;;;;;5055185;28;20049;-58
2021/03/11 06:18:45;;;;;;;120.13;52.22;;;;;;;;;;5055125;28;20420;-58
2021/03/11 06:21:10;;;;;;;146.38;58.20;;;;;;;;;;5054512;28;20059;-58
2021/03/11 06:23:36;;;;;;;118.07;46.08;;;;;;;;;;5055126;28;20017;-58
2021/03/11 06:26:01;;;;;;;137.00;51.40;;;;;;;;;;5054378;28;20033;-59
2021/03/11 06:28:56;;;;;;;88.00;33.30;;;;;;;;;;5054664;28;20017;-58
2021/03/11 06:31:26;;;;;;;115.78;37.97;;;;;;;;;;5037279;28;20407;-59
2021/03/11 06:33:55;;;;;;;149.80;45.38;;;;;;;;;;5054572;28;20112;-59
2021/03/11 06:36:22;;;;;;;137.77;46.70;;;;;;;;;;5036659;28;20103;-59
2021/03/11 06:38:49;;;;;;;116.63;40.17;;;;;;;;;;5054587;28;20021;-59
2021/03/11 06:41:15;;;;;;;86.90;31.52;;;;;;;;;;5054367;28;20063;-59
2021/03/11 06:43:51;;;;;;;74.43;29.25;;;;;;;;;;5054591;28;20024;-59
2021/03/11 06:46:17;;;;;;;85.68;28.17;;;;;;;;;;5053202;28;20033;-59
2021/03/11 06:48:43;;;;;;;48.13;19.13;;;;;;;;;;5053564;28;20120;-59
2021/03/11 06:51:20;;;;;;;34.15;13.90;;;;;;;;;;5054069;28;20052;-59
2021/03/11 06:53:54;;;;;;;49.97;19.55;;;;;;;;;;5054412;28;20158;-58
2021/03/11 06:56:20;;;;;;;25.35;13.98;;;;;;;;;;5053312;28;20028;-58
2021/03/11 06:58:58;;;;;;;44.30;18.65;;;;;;;;;;5053890;28;20017;-58
2021/03/11 07:01:24;;;;;;;33.13;16.17;;;;;;;;;;5036007;28;20036;-57
2021/03/11 07:03:50;;;;;;;45.45;19.08;;;;;;;;;;5053671;28;20021;-58
2021/03/11 07:06:27;;;;;;;34.58;17.75;;;;;;;;;;5053740;28;20083;-58
2021/03/11 07:08:53;;;;;;;22.55;11.85;;;;;;;;;;5035962;28;20057;-58
2021/03/11 07:11:19;;;;;;;22.23;13.30;;;;;;;;;;5053724;28;20095;-58
2021/03/11 07:13:45;;;;;;;23.33;10.98;;;;;;;;;;5053559;28;20033;-58
2021/03/11 07:16:11;;;;;;;24.42;11.57;;;;;;;;;;5053509;28;20372;-58
2021/03/11 07:18:37;;;;;;;22.15;12.40;;;;;;;;;;5053512;28;20033;-58
2021/03/11 07:21:02;;;;;;;23.88;13.82;;;;;;;;;;5053425;28;20131;-58
2021/03/11 07:23:28;;;;;;;21.63;12.00;;;;;;;;;;5053506;28;20033;-58
2021/03/11 07:25:54;;;;;;;19.42;11.63;;;;;;;;;;5053156;28;20017;-58
2021/03/11 07:28:27;;;;;;;16.15;9.38;;;;;;;;;;5053405;28;20043;-58
2021/03/11 07:30:54;;;;;;;24.50;13.70;;;;;;;;;;5053382;28;20044;-58
2021/03/11 07:33:20;;;;;;;20.75;12.73;;;;;;;;;;5052505;28;20467;-58
2021/03/11 07:35:46;;;;;;;16.83;10.35;;;;;;;;;;5053176;28;20067;-58
2021/03/11 07:38:15;;;;;;;17.63;9.98;;;;;;;;;;5053139;28;20033;-58
2021/03/11 07:40:40;;;;;;;23.55;13.63;;;;;;;;;;5053057;28;20032;-58
2021/03/11 07:43:06;;;;;;;19.63;11.27;;;;;;;;;;5053125;28;20460;-58
2021/03/11 07:45:32;;;;;;;25.92;12.90;;;;;;;;;;5035247;28;20029;-58
2021/03/11 07:48:01;;;;;;;19.17;11.00;;;;;;;;;;5035323;28;20020;-59
2021/03/11 07:50:26;;;;;;;24.20;13.07;;;;;;;;;;5053070;28;20051;-58
2021/03/11 07:52:53;;;;;;;17.73;10.43;;;;;;;;;;5052976;28;20103;-58
2021/03/11 07:55:19;;;;;;;24.63;14.25;;;;;;;;;;5035328;28;20041;-59
2021/03/11 07:57:47;;;;;;;17.75;9.43;;;;;;;;;;5052931;28;20033;-58
2021/03/11 08:00:14;;;;;;;14.80;9.27;;;;;;;;;;5035553;28;20074;-59
2021/03/11 08:02:42;;;;;;;10.02;6.30;;;;;;;;;;5053082;28;20100;-59
2021/03/11 08:05:08;;;;;;;17.80;10.20;;;;;;;;;;5052859;28;20040;-59
2021/03/11 08:07:34;;;;;;;13.48;7.68;;;;;;;;;;5052898;28;20437;-59
2021/03/11 08:09:59;;;;;;;16.38;9.18;;;;;;;;;;5052867;28;20053;-59
2021/03/11 08:12:36;;;;;;;17.83;11.63;;;;;;;;;;5052898;28;20021;-59
2021/03/11 08:15:06;;;;;;;21.00;12.10;;;;;;;;;;5052905;28;20434;-59
2021/03/11 08:17:42;;;;;;;15.75;9.38;;;;;;;;;;5052810;28;20032;-59
2021/03/11 08:20:08;;;;;;;18.25;10.05;;;;;;;;;;5052435;28;20032;-59
2021/03/11 08:22:53;;;;;;;21.80;12.50;;;;;;;;;;5052961;28;20021;-59
2021/03/11 08:25:24;;;;;;;13.50;8.15;;;;;;;;;;5052699;28;20059;-59
2021/03/11 08:27:50;;;;;;;16.45;10.43;;;;;;;;;;5052736;28;20086;-59
2021/03/11 08:30:34;;;;;;;14.70;8.13;;;;;;;;;;5052694;28;20364;-59
2021/03/11 08:33:00;;;;;;;17.73;10.00;;;;;;;;;;5052713;28;20021;-59
2021/03/11 08:35:28;;;;;;;18.50;10.95;;;;;;;;;;5052690;28;20067;-59
2021/03/11 08:37:54;;;;;;;17.45;11.60;;;;;;;;;;5052696;28;20082;-59
2021/03/11 08:40:36;;;;;;;14.55;8.38;;;;;;;;;;5052609;28;20025;-58
2021/03/11 08:43:01;;;;;;;20.20;10.75;;;;;;;;;;5052516;28;20025;-58
2021/03/11 08:45:36;;;;;;;13.23;8.60;;;;;;;;;;5055413;28;20075;-58
2021/03/11 08:48:12;;;;;;;10.13;7.03;;;;;;;;;;5056299;28;20071;-58
2021/03/11 08:50:40;;;;;;;12.00;7.60;;;;;;;;;;5038681;28;20025;-58
2021/03/11 08:53:06;;;;;;;13.40;8.20;;;;;;;;;;5056156;28;20533;-58
2021/03/11 08:55:32;;;;;;;19.90;11.40;;;;;;;;;;5038209;28;20037;-58
2021/03/11 08:57:59;;;;;;;17.88;10.40;;;;;;;;;;5056082;28;20084;-58
2021/03/11 09:00:57;;;;;;;16.50;9.73;;;;;;;;;;5056069;28;20055;-58
2021/03/11 09:03:38;;;;;;;16.35;9.70;;;;;;;;;;4994964;28;20112;-58
2021/03/11 09:06:04;;;;;;;;;;;;;;;;;;5056448;28;20159;-58
2021/03/11 09:08:29;;;;;;;17.25;10.77;;;;;;;;;;5055908;28;20392;-58
2021/03/11 09:11:10;;;;;;;13.50;9.35;;;;;;;;;;5038072;28;20033;-58
2021/03/11 09:13:39;;;;;;;13.10;9.13;;;;;;;;;;5055492;28;20029;-58
2021/03/11 09:16:04;;;;;;;10.30;7.13;;;;;;;;;;5037844;28;20110;-58
2021/03/11 09:18:30;;;;;;;24.83;13.50;;;;;;;;;;5055695;28;20068;-57
2021/03/11 09:20:58;;;;;;;14.45;7.90;;;;;;;;;;5055638;28;20025;-57
2021/03/11 09:23:40;;;;;;;16.17;10.50;;;;;;;;;;5055815;28;20059;-57
2021/03/11 09:26:07;;;;;;;19.67;12.13;;;;;;;;;;5055725;28;20032;-58
2021/03/11 09:28:33;;;;;;;15.77;9.38;;;;;;;;;;5055638;28;20021;-58
2021/03/11 09:30:58;;;;;;;16.67;9.65;;;;;;;;;;5055596;28;20036;-58
2021/03/11 09:33:24;;;;;;;16.55;10.75;;;;;;;;;;5055698;28;20025;-58
2021/03/11 09:35:50;;;;;;;15.25;9.95;;;;;;;;;;5037817;28;20036;-58
2021/03/11 09:38:20;;;;;;;14.05;8.85;;;;;;;;;;5055453;28;20016;-58
2021/03/11 09:40:47;;;;;;;18.55;13.23;;;;;;;;;;5055418;28;20059;-58
2021/03/11 09:43:22;;;;;;;15.80;9.40;;;;;;;;;;5055213;28;20028;-58
2021/03/11 09:45:49;;;;;;;16.52;10.02;;;;;;;;;;5055438;28;20029;-58
2021/03/11 09:48:18;;;;;;;17.45;9.88;;;;;;;;;;5055676;28;20016;-58
2021/03/11 09:51:05;;;;;;;13.85;8.48;;;;;;;;;;5037314;28;20083;-58
2021/03/11 09:53:50;;;;;;;22.35;11.35;;;;;;;;;;5055748;28;20033;-59
2021/03/11 09:56:20;;;;;;;15.60;10.15;;;;;;;;;;5023362;28;20041;-59
2021/03/11 09:58:46;;;;;;;13.77;7.68;;;;;;;;;;5055619;28;20071;-59
2021/03/11 10:01:19;;;;;;;24.42;15.05;;;;;;;;;;5037892;28;20398;-59
2021/03/11 10:03:46;;;;;;;12.32;9.38;;;;;;;;;;5055534;28;20496;-59
2021/03/11 10:06:14;;;;;;;14.93;9.40;;;;;;;;;;5055212;28;20115;-59
2021/03/11 10:08:40;;;;;;;16.63;10.13;;;;;;;;;;5055160;28;20021;-59
2021/03/11 10:11:08;;;;;;;21.23;12.25;;;;;;;;;;5055252;28;20021;-59
2021/03/11 10:13:38;;;;;;;18.80;11.68;;;;;;;;;;5037474;28;20029;-58
2021/03/11 10:16:05;;;;;;;25.20;14.18;;;;;;;;;;5055362;28;20033;-58
2021/03/11 10:18:31;;;;;;;21.15;12.07;;;;;;;;;;5055053;28;20028;-59
2021/03/11 10:21:04;;;;;;;29.02;14.90;;;;;;;;;;5037319;28;20086;-59
2021/03/11 10:23:29;;;;;;;18.40;11.13;;;;;;;;;;5054858;28;20033;-58
2021/03/11 10:26:14;;;;;;;19.75;10.50;;;;;;;;;;5054656;28;20036;-59
2021/03/11 10:28:40;;;;;;;19.00;11.82;;;;;;;;;;5054419;28;20021;-58
2021/03/11 10:31:07;;;;;;;19.42;11.88;;;;;;;;;;5036520;28;20104;-58
2021/03/11 10:33:33;;;;;;;18.70;12.77;;;;;;;;;;5035439;28;20534;-59
2021/03/11 10:36:08;;;;;;;19.23;12.02;;;;;;;;;;5054368;28;20028;-59
2021/03/11 10:38:36;;;;;;;14.85;8.88;;;;;;;;;;5053846;28;20035;-59
2021/03/11 10:41:15;;;;;;;16.83;11.50;;;;;;;;;;5054167;28;20115;-59
2021/03/11 10:43:41;;;;;;;24.95;13.32;;;;;;;;;;5054366;28;20070;-59
2021/03/11 10:46:08;;;;;;;18.67;11.60;;;;;;;;;;5054115;28;20028;-58
2021/03/11 10:48:49;;;;;;;17.88;11.77;;;;;;;;;;5035979;28;20449;-58
2021/03/11 10:51:16;;;;;;;23.45;13.05;;;;;;;;;;5053710;28;20056;-59
2021/03/11 10:53:41;;;;;;;13.45;7.78;;;;;;;;;;5054560;28;20349;-59
2021/03/11 10:56:07;;;;;;;15.05;9.65;;;;;;;;;;5054108;28;20037;-59
2021/03/11 10:58:33;;;;;;;19.02;12.77;;;;;;;;;;5054258;28;20021;-58
2021/03/11 11:01:16;;;;;;;26.88;16.25;;;;;;;;;;5055764;28;20399;-59
2021/03/11 11:03:42;;;;;;;19.48;12.05;;;;;;;;;;5054071;28;20036;-58
2021/03/11 11:06:07;;;;;;;28.00;15.07;;;;;;;;;;5053826;28;20021;-58
2021/03/11 11:08:42;;;;;;;28.95;16.05;;;;;;;;;;5035323;28;20037;-59
2021/03/11 11:11:11;;;;;;;22.10;13.98;;;;;;;;;;5045578;28;20455;-59
2021/03/11 11:13:36;;;;;;;24.63;16.05;;;;;;;;;;5073579;28;20025;-59
2021/03/11 11:16:02;;;;;;;23.88;15.70;;;;;;;;;;5074036;28;20491;-58
2021/03/11 11:18:28;;;;;;;24.65;15.73;;;;;;;;;;5073780;28;20020;-59
2021/03/11 11:20:53;;;;;;;22.73;13.18;;;;;;;;;;5073582;28;20488;-58
2021/03/11 11:23:19;;;;;;;18.17;10.80;;;;;;;;;;5073837;28;20375;-59
2021/03/11 11:25:44;;;;;;;18.85;11.82;;;;;;;;;;5073900;28;20034;-58
2021/03/11 11:28:10;;;;;;;34.78;18.92;;;;;;;;;;5073858;28;20011;-58
2021/03/11 11:30:35;;;;;;;25.85;15.73;;;;;;;;;;5055764;28;20051;-58
2021/03/11 11:33:02;;;;;;;24.20;14.13;;;;;;;;;;5065552;28;20028;-58
2021/03/11 11:35:27;;;;;;;19.77;13.52;;;;;;;;;;5053359;28;20020;-58
2021/03/11 11:37:53;;;;;;;14.90;9.68;;;;;;;;;;5070797;28;20028;-58
2021/03/11 11:40:19;;;;;;;23.52;14.98;;;;;;;;;;5051153;28;20112;-59
2021/03/11 11:42:45;;;;;;;51.05;26.60;;;;;;;;;;5055262;28;20670;-59
2021/03/11 11:45:11;;;;;;;29.40;20.98;;;;;;;;;;5073383;28;20028;-59
2021/03/11 11:47:36;;;;;;;53.20;35.35;;;;;;;;;;5055235;28;20013;-58
2021/03/11 11:50:03;;;;;;;32.97;24.08;;;;;;;;;;5073024;28;20387;-59
2021/03/11 11:52:28;;;;;;;43.67;29.38;;;;;;;;;;5072386;28;20043;-59
2021/03/11 11:54:54;;;;;;;34.17;23.63;;;;;;;;;;5055175;28;20024;-59
2021/03/11 11:57:20;;;;;;;33.10;20.63;;;;;;;;;;5072063;28;20024;-59
2021/03/11 11:59:54;;;;;;;35.22;23.55;;;;;;;;;;5054237;28;20024;-59
2021/03/11 12:02:23;;;;;;;47.03;34.85;;;;;;;;;;5052833;28;20077;-59
2021/03/11 12:04:48;;;;;;;27.05;18.73;;;;;;;;;;5072892;28;20017;-59
2021/03/11 12:07:14;;;;;;;157.80;99.28;;;;;;;;;;5073168;28;20138;-59
2021/03/11 12:09:40;;;;;;;63.50;44.83;;;;;;;;;;5073468;28;20029;-59
2021/03/11 12:12:06;;;;;;;42.35;27.92;;;;;;;;;;5073165;28;20025;-58
2021/03/11 12:14:32;;;;;;;22.17;13.70;;;;;;;;;;5073122;28;20025;-59
2021/03/11 12:16:58;;;;;;;42.45;31.67;;;;;;;;;;5055289;28;20032;-58
2021/03/11 12:19:23;;;;;;;31.67;18.17;;;;;;;;;;5074498;28;20021;-59
2021/03/11 12:21:49;;;;;;;11.55;8.05;;;;;;;;;;5077166;28;20027;-59
2021/03/11 12:24:17;;;;;;;36.92;19.52;;;;;;;;;;5076967;28;20336;-59
2021/03/11 12:26:42;;;;;;;27.60;16.95;;;;;;;;;;5059224;28;20063;-59
2021/03/11 12:29:08;;;;;;;23.60;13.70;;;;;;;;;;5077148;28;20479;-59
2021/03/11 12:31:33;;;;;;;22.45;12.07;;;;;;;;;;5077224;28;20040;-59
2021/03/11 12:33:59;;;;;;;23.48;13.13;;;;;;;;;;5077068;28;20025;-59
2021/03/11 12:36:27;;;;;;;17.45;10.10;;;;;;;;;;5077014;28;20025;-58
2021/03/11 12:38:53;;;;;;;9.98;7.15;;;;;;;;;;5076851;28;20021;-59
2021/03/11 12:41:20;;;;;;;18.85;9.55;;;;;;;;;;5077041;28;20039;-59
2021/03/11 12:43:46;;;;;;;17.90;9.93;;;;;;;;;;5076754;28;20021;-59
2021/03/11 12:46:11;;;;;;;13.13;8.55;;;;;;;;;;5076806;28;20568;-59
2021/03/11 12:48:37;;;;;;;24.08;12.77;;;;;;;;;;5076725;28;20024;-58
2021/03/11 12:51:02;;;;;;;22.67;12.45;;;;;;;;;;5076177;28;20474;-59
2021/03/11 12:53:28;;;;;;;20.85;11.18;;;;;;;;;;5076602;28;20066;-59
2021/03/11 12:55:54;;;;;;;20.63;10.32;;;;;;;;;;5075025;28;20032;-59
2021/03/11 12:58:20;;;;;;;21.38;11.32;;;;;;;;;;5076113;28;20035;-59
2021/03/11 13:00:45;;;;;;;18.88;10.80;;;;;;;;;;5076368;28;20422;-58
2021/03/11 13:03:11;;;;;;;13.95;8.90;;;;;;;;;;5076337;28;20446;-58
2021/03/11 13:05:36;;;;;;;12.20;8.25;;;;;;;;;;5076087;28;20021;-58
2021/03/11 13:08:03;;;;;;;19.52;11.10;;;;;;;;;;5058248;28;20008;-58
2021/03/11 13:10:29;;;;;;;14.63;9.65;;;;;;;;;;5076251;28;20036;-59
2021/03/11 13:12:54;;;;;;;3.45;2.10;;;;;;;;;;5076022;28;20028;-59
2021/03/11 13:15:20;;;;;;;13.23;8.52;;;;;;;;;;5076125;28;20363;-59
2021/03/11 13:17:46;;;;;;;12.43;7.78;;;;;;;;;;5076031;28;20029;-59
2021/03/11 13:20:12;;;;;;;20.83;10.57;;;;;;;;;;5075952;28;20028;-59
2021/03/11 13:22:37;;;;;;;22.65;11.63;;;;;;;;;;5075849;28;20024;-59
2021/03/11 13:25:04;;;;;;;14.88;8.55;;;;;;;;;;5075759;28;20024;-59
2021/03/11 13:27:29;;;;;;;22.13;12.00;;;;;;;;;;5075759;28;20066;-58
2021/03/11 13:29:55;;;;;;;31.83;17.85;;;;;;;;;;5075888;28;20032;-59
2021/03/11 13:32:20;;;;;;;4.13;2.92;;;;;;;;;;5074932;28;20013;-59
2021/03/11 13:34:46;;;;;;;14.15;7.80;;;;;;;;;;5076008;28;20064;-58
2021/03/11 13:37:11;;;;;;;14.23;8.57;;;;;;;;;;5075839;28;20012;-58
2021/03/11 13:39:37;;;;;;;15.68;8.18;;;;;;;;;;5075834;28;20033;-58
2021/03/11 13:42:02;;;;;;;8.00;4.63;;;;;;;;;;5074353;28;20024;-58
2021/03/11 13:44:31;;;;;;;18.27;10.93;;;;;;;;;;5075484;28;20024;-58
2021/03/11 13:46:56;;;;;;;12.45;7.07;;;;;;;;;;5075571;28;20051;-58
2021/03/11 13:49:22;;;;;;;24.23;12.13;;;;;;;;;;5074862;28;20117;-58
2021/03/11 13:51:47;;;;;;;39.33;18.00;;;;;;;;;;5074919;28;20056;-58
2021/03/11 13:54:13;;;;;;;15.73;7.47;;;;;;;;;;5072229;28;20028;-61
2021/03/11 13:56:38;;;;;;;52.50;26.05;;;;;;;;;;5073774;28;20438;-58
2021/03/11 13:59:04;;;;;;;29.48;15.75;;;;;;;;;;5070411;28;20075;-58
2021/03/11 14:01:30;;;;;;;28.60;16.15;;;;;;;;;;5047430;28;20023;-58
2021/03/11 14:03:55;;;;;;;30.55;19.48;;;;;;;;;;5071963;28;20033;-60
2021/03/11 14:06:21;;;;;;;26.23;13.10;;;;;;;;;;5070418;28;20040;-58
2021/03/11 14:08:47;;;;;;;39.72;21.92;;;;;;;;;;5055051;28;20029;-58
2021/03/11 14:11:12;;;;;;;28.52;15.10;;;;;;;;;;5055088;28;20460;-57
2021/03/11 14:13:38;;;;;;;30.35;14.32;;;;;;;;;;5037227;28;20494;-57
2021/03/11 14:16:05;;;;;;;32.03;17.42;;;;;;;;;;5054870;28;20028;-57
2021/03/11 14:18:30;;;;;;;51.38;33.92;;;;;;;;;;5036999;28;20040;-57
2021/03/11 14:20:56;;;;;;;56.58;39.53;;;;;;;;;;5055234;28;20017;-58